sensor_id;sensor_type;location;lat;lon;timestamp;P1;durP1;ratioP1;P2;durP2;ratioP2
25752;SDS011;13600;50.816;4.416;2023-06-14T00:00:13;8.63;;;6.32;;
25752;SDS011;13600;50.816;4.416;2023-06-14T00:02:40;16.45;;;6.70;;
25752;SDS011;13600;50.816;4.416;2023-06-14T00:05:06;13.23;;;6.60;;
25752;SDS011;13600;50.816;4.416;2023-06-14T00:07:38;12.65;;;6.70;;
25752;SDS011;13600;50.816;4.416;2023-06-14T00:10:07;12.23;;;6.80;;
25752;SDS011;13600;50.816;4.416;2023-06-14T00:12:34;11.30;;;6.22;;
25752;SDS011;13600;50.816;4.416;2023-06-14T00:15:01;10.50;;;7.18;;
25752;SDS011;13600;50.816;4.416;2023-06-14T00:17:27;12.75;;;6.82;;
25752;SDS011;13600;50.816;4.416;2023-06-14T00:19:56;10.00;;;6.70;;
25752;SDS011;13600;50.816;4.416;2023-06-14T00:22:23;11.80;;;6.53;;
25752;SDS011;13600;50.816;4.416;2023-06-14T00:24:50;12.73;;;6.40;;
25752;SDS011;13600;50.816;4.416;2023-06-14T00:27:16;9.63;;;6.82;;
25752;SDS011;13600;50.816;4.416;2023-06-14T00:29:42;16.63;;;7.43;;
25752;SDS011;13600;50.816;4.416;2023-06-14T00:32:07;10.38;;;6.78;;
25752;SDS011;13600;50.816;4.416;2023-06-14T00:34:33;13.48;;;7.18;;
25752;SDS011;13600;50.816;4.416;2023-06-14T00:36:59;9.18;;;6.65;;
25752;SDS011;13600;50.816;4.416;2023-06-14T00:39:26;10.85;;;6.68;;
25752;SDS011;13600;50.816;4.416;2023-06-14T00:41:51;11.93;;;7.10;;
25752;SDS011;13600;50.816;4.416;2023-06-14T00:44:17;9.63;;;6.65;;
25752;SDS011;13600;50.816;4.416;2023-06-14T00:46:44;11.55;;;7.03;;
25752;SDS011;13600;50.816;4.416;2023-06-14T00:49:10;8.95;;;6.60;;
25752;SDS011;13600;50.816;4.416;2023-06-14T00:51:39;8.10;;;6.63;;
25752;SDS011;13600;50.816;4.416;2023-06-14T00:54:05;12.25;;;6.88;;
25752;SDS011;13600;50.816;4.416;2023-06-14T00:56:30;11.43;;;6.72;;
25752;SDS011;13600;50.816;4.416;2023-06-14T00:58:56;12.13;;;7.03;;
25752;SDS011;13600;50.816;4.416;2023-06-14T01:01:23;9.75;;;6.47;;
25752;SDS011;13600;50.816;4.416;2023-06-14T01:03:49;11.52;;;7.25;;
25752;SDS011;13600;50.816;4.416;2023-06-14T01:09:01;8.35;;;6.88;;
25752;SDS011;13600;50.816;4.416;2023-06-14T01:11:31;9.73;;;6.85;;
25752;SDS011;13600;50.816;4.416;2023-06-14T01:14:02;9.80;;;6.60;;
25752;SDS011;13600;50.816;4.416;2023-06-14T01:16:29;10.57;;;6.90;;
25752;SDS011;13600;50.816;4.416;2023-06-14T01:18:57;13.32;;;7.25;;
25752;SDS011;13600;50.816;4.416;2023-06-14T01:21:23;11.95;;;6.68;;
25752;SDS011;13600;50.816;4.416;2023-06-14T01:23:50;12.25;;;7.30;;
25752;SDS011;13600;50.816;4.416;2023-06-14T01:26:18;9.60;;;7.15;;
25752;SDS011;13600;50.816;4.416;2023-06-14T01:28:45;12.40;;;6.95;;
25752;SDS011;13600;50.816;4.416;2023-06-14T01:31:14;17.58;;;7.35;;
25752;SDS011;13600;50.816;4.416;2023-06-14T01:33:42;11.73;;;7.40;;
25752;SDS011;13600;50.816;4.416;2023-06-14T01:36:09;9.20;;;7.35;;
25752;SDS011;13600;50.816;4.416;2023-06-14T01:38:35;11.43;;;7.18;;
25752;SDS011;13600;50.816;4.416;2023-06-14T01:41:02;12.02;;;7.05;;
25752;SDS011;13600;50.816;4.416;2023-06-14T01:43:29;10.30;;;6.93;;
25752;SDS011;13600;50.816;4.416;2023-06-14T01:45:56;11.02;;;7.05;;
25752;SDS011;13600;50.816;4.416;2023-06-14T01:48:22;10.30;;;6.82;;
25752;SDS011;13600;50.816;4.416;2023-06-14T01:50:49;9.73;;;6.88;;
25752;SDS011;13600;50.816;4.416;2023-06-14T01:53:15;16.17;;;7.22;;
25752;SDS011;13600;50.816;4.416;2023-06-14T01:55:41;10.18;;;6.97;;
25752;SDS011;13600;50.816;4.416;2023-06-14T01:58:08;9.90;;;7.05;;
25752;SDS011;13600;50.816;4.416;2023-06-14T02:00:34;12.00;;;7.15;;
25752;SDS011;13600;50.816;4.416;2023-06-14T02:03:00;18.60;;;7.30;;
25752;SDS011;13600;50.816;4.416;2023-06-14T02:05:27;12.23;;;7.25;;
25752;SDS011;13600;50.816;4.416;2023-06-14T02:07:52;12.35;;;7.22;;
25752;SDS011;13600;50.816;4.416;2023-06-14T02:10:18;15.73;;;7.68;;
25752;SDS011;13600;50.816;4.416;2023-06-14T02:12:44;12.18;;;7.07;;
25752;SDS011;13600;50.816;4.416;2023-06-14T02:15:10;11.27;;;6.93;;
25752;SDS011;13600;50.816;4.416;2023-06-14T02:17:41;11.88;;;7.30;;
25752;SDS011;13600;50.816;4.416;2023-06-14T02:20:14;12.40;;;6.95;;
25752;SDS011;13600;50.816;4.416;2023-06-14T02:22:40;12.93;;;7.65;;
25752;SDS011;13600;50.816;4.416;2023-06-14T02:25:06;12.93;;;7.72;;
25752;SDS011;13600;50.816;4.416;2023-06-14T02:27:33;10.00;;;6.93;;
25752;SDS011;13600;50.816;4.416;2023-06-14T02:29:59;10.95;;;7.60;;
25752;SDS011;13600;50.816;4.416;2023-06-14T02:32:25;13.15;;;7.00;;
25752;SDS011;13600;50.816;4.416;2023-06-14T02:34:52;12.95;;;7.25;;
25752;SDS011;13600;50.816;4.416;2023-06-14T02:37:18;12.52;;;7.30;;
25752;SDS011;13600;50.816;4.416;2023-06-14T02:39:44;10.60;;;7.57;;
25752;SDS011;13600;50.816;4.416;2023-06-14T02:42:10;10.40;;;7.78;;
25752;SDS011;13600;50.816;4.416;2023-06-14T02:44:36;12.95;;;7.43;;
25752;SDS011;13600;50.816;4.416;2023-06-14T02:47:02;14.15;;;7.80;;
25752;SDS011;13600;50.816;4.416;2023-06-14T02:49:29;16.73;;;7.72;;
25752;SDS011;13600;50.816;4.416;2023-06-14T02:51:55;14.25;;;8.07;;
25752;SDS011;13600;50.816;4.416;2023-06-14T02:54:21;11.18;;;7.55;;
25752;SDS011;13600;50.816;4.416;2023-06-14T02:56:46;17.90;;;7.80;;
25752;SDS011;13600;50.816;4.416;2023-06-14T02:59:12;13.30;;;8.05;;
25752;SDS011;13600;50.816;4.416;2023-06-14T03:01:39;13.35;;;7.50;;
25752;SDS011;13600;50.816;4.416;2023-06-14T03:04:09;11.52;;;7.82;;
25752;SDS011;13600;50.816;4.416;2023-06-14T03:06:35;10.73;;;7.57;;
25752;SDS011;13600;50.816;4.416;2023-06-14T03:09:02;14.43;;;8.13;;
25752;SDS011;13600;50.816;4.416;2023-06-14T03:11:31;14.45;;;8.23;;
25752;SDS011;13600;50.816;4.416;2023-06-14T03:13:57;14.93;;;8.35;;
25752;SDS011;13600;50.816;4.416;2023-06-14T03:16:22;9.48;;;7.60;;
25752;SDS011;13600;50.816;4.416;2023-06-14T03:18:52;13.35;;;7.90;;
25752;SDS011;13600;50.816;4.416;2023-06-14T03:21:18;12.35;;;7.97;;
25752;SDS011;13600;50.816;4.416;2023-06-14T03:23:45;11.18;;;8.05;;
25752;SDS011;13600;50.816;4.416;2023-06-14T03:26:12;12.40;;;8.00;;
25752;SDS011;13600;50.816;4.416;2023-06-14T03:28:39;12.18;;;8.50;;
25752;SDS011;13600;50.816;4.416;2023-06-14T03:31:05;15.77;;;8.35;;
25752;SDS011;13600;50.816;4.416;2023-06-14T03:33:31;13.55;;;8.00;;
25752;SDS011;13600;50.816;4.416;2023-06-14T03:35:57;10.80;;;8.15;;
25752;SDS011;13600;50.816;4.416;2023-06-14T03:38:22;13.80;;;8.73;;
25752;SDS011;13600;50.816;4.416;2023-06-14T03:40:48;12.85;;;8.30;;
25752;SDS011;13600;50.816;4.416;2023-06-14T03:43:14;14.52;;;8.88;;
25752;SDS011;13600;50.816;4.416;2023-06-14T03:45:39;10.93;;;8.80;;
25752;SDS011;13600;50.816;4.416;2023-06-14T03:48:05;13.68;;;8.63;;
25752;SDS011;13600;50.816;4.416;2023-06-14T03:50:31;13.18;;;7.97;;
25752;SDS011;13600;50.816;4.416;2023-06-14T03:52:57;13.65;;;8.38;;
25752;SDS011;13600;50.816;4.416;2023-06-14T03:55:23;11.60;;;8.45;;
25752;SDS011;13600;50.816;4.416;2023-06-14T03:57:50;14.65;;;9.20;;
25752;SDS011;13600;50.816;4.416;2023-06-14T04:00:16;16.55;;;8.55;;
25752;SDS011;13600;50.816;4.416;2023-06-14T04:02:43;11.77;;;8.50;;
25752;SDS011;13600;50.816;4.416;2023-06-14T04:05:09;21.27;;;9.27;;
25752;SDS011;13600;50.816;4.416;2023-06-14T04:07:35;15.93;;;9.15;;
25752;SDS011;13600;50.816;4.416;2023-06-14T04:10:09;13.85;;;8.93;;
25752;SDS011;13600;50.816;4.416;2023-06-14T04:12:38;16.58;;;8.20;;
25752;SDS011;13600;50.816;4.416;2023-06-14T04:15:05;12.88;;;8.20;;
25752;SDS011;13600;50.816;4.416;2023-06-14T04:17:31;11.35;;;8.05;;
25752;SDS011;13600;50.816;4.416;2023-06-14T04:20:00;11.65;;;8.52;;
25752;SDS011;13600;50.816;4.416;2023-06-14T04:22:30;12.52;;;8.07;;
25752;SDS011;13600;50.816;4.416;2023-06-14T04:24:56;16.13;;;8.98;;
25752;SDS011;13600;50.816;4.416;2023-06-14T04:27:28;11.13;;;8.75;;
25752;SDS011;13600;50.816;4.416;2023-06-14T04:29:57;17.83;;;8.60;;
25752;SDS011;13600;50.816;4.416;2023-06-14T04:32:24;16.70;;;8.90;;
25752;SDS011;13600;50.816;4.416;2023-06-14T04:34:54;14.88;;;8.25;;
25752;SDS011;13600;50.816;4.416;2023-06-14T04:37:24;22.33;;;9.38;;
25752;SDS011;13600;50.816;4.416;2023-06-14T04:39:53;14.95;;;8.80;;
25752;SDS011;13600;50.816;4.416;2023-06-14T04:42:24;15.45;;;9.00;;
25752;SDS011;13600;50.816;4.416;2023-06-14T04:44:56;16.60;;;8.75;;
25752;SDS011;13600;50.816;4.416;2023-06-14T04:47:22;17.27;;;9.05;;
25752;SDS011;13600;50.816;4.416;2023-06-14T04:49:50;14.20;;;9.07;;
25752;SDS011;13600;50.816;4.416;2023-06-14T04:52:18;20.30;;;8.75;;
25752;SDS011;13600;50.816;4.416;2023-06-14T04:54:46;16.67;;;9.05;;
25752;SDS011;13600;50.816;4.416;2023-06-14T04:57:12;20.48;;;9.02;;
25752;SDS011;13600;50.816;4.416;2023-06-14T04:59:42;17.33;;;9.07;;
25752;SDS011;13600;50.816;4.416;2023-06-14T05:02:09;13.48;;;9.18;;
25752;SDS011;13600;50.816;4.416;2023-06-14T05:04:36;16.60;;;9.50;;
25752;SDS011;13600;50.816;4.416;2023-06-14T05:07:06;11.48;;;8.75;;
25752;SDS011;13600;50.816;4.416;2023-06-14T05:09:33;14.13;;;9.35;;
25752;SDS011;13600;50.816;4.416;2023-06-14T05:11:59;15.45;;;8.77;;
25752;SDS011;13600;50.816;4.416;2023-06-14T05:14:25;15.38;;;9.55;;
25752;SDS011;13600;50.816;4.416;2023-06-14T05:16:51;14.98;;;8.90;;
25752;SDS011;13600;50.816;4.416;2023-06-14T05:19:18;14.63;;;9.77;;
25752;SDS011;13600;50.816;4.416;2023-06-14T05:21:45;16.90;;;9.75;;
25752;SDS011;13600;50.816;4.416;2023-06-14T05:24:12;17.15;;;9.25;;
25752;SDS011;13600;50.816;4.416;2023-06-14T05:26:38;14.98;;;9.27;;
25752;SDS011;13600;50.816;4.416;2023-06-14T05:29:04;12.18;;;9.07;;
25752;SDS011;13600;50.816;4.416;2023-06-14T05:31:30;15.43;;;9.18;;
25752;SDS011;13600;50.816;4.416;2023-06-14T05:33:56;13.52;;;9.32;;
25752;SDS011;13600;50.816;4.416;2023-06-14T05:36:21;12.20;;;9.40;;
25752;SDS011;13600;50.816;4.416;2023-06-14T05:38:47;18.05;;;9.55;;
25752;SDS011;13600;50.816;4.416;2023-06-14T05:41:13;16.13;;;9.32;;
25752;SDS011;13600;50.816;4.416;2023-06-14T05:43:40;14.95;;;9.98;;
25752;SDS011;13600;50.816;4.416;2023-06-14T05:46:06;18.58;;;9.73;;
25752;SDS011;13600;50.816;4.416;2023-06-14T05:48:31;19.98;;;9.73;;
25752;SDS011;13600;50.816;4.416;2023-06-14T05:50:58;17.48;;;9.73;;
25752;SDS011;13600;50.816;4.416;2023-06-14T05:53:24;14.27;;;8.95;;
25752;SDS011;13600;50.816;4.416;2023-06-14T05:55:50;14.48;;;9.35;;
25752;SDS011;13600;50.816;4.416;2023-06-14T05:58:18;17.02;;;9.35;;
25752;SDS011;13600;50.816;4.416;2023-06-14T06:00:44;14.45;;;9.18;;
25752;SDS011;13600;50.816;4.416;2023-06-14T06:03:10;14.27;;;9.57;;
25752;SDS011;13600;50.816;4.416;2023-06-14T06:05:38;16.67;;;9.00;;
25752;SDS011;13600;50.816;4.416;2023-06-14T06:08:04;21.80;;;9.27;;
25752;SDS011;13600;50.816;4.416;2023-06-14T06:10:30;14.82;;;8.98;;
25752;SDS011;13600;50.816;4.416;2023-06-14T06:12:55;17.63;;;9.43;;
25752;SDS011;13600;50.816;4.416;2023-06-14T06:15:21;17.42;;;8.50;;
25752;SDS011;13600;50.816;4.416;2023-06-14T06:17:47;18.70;;;9.10;;
25752;SDS011;13600;50.816;4.416;2023-06-14T06:20:12;16.85;;;9.10;;
25752;SDS011;13600;50.816;4.416;2023-06-14T06:22:38;15.85;;;8.77;;
25752;SDS011;13600;50.816;4.416;2023-06-14T06:25:04;12.70;;;8.50;;
25752;SDS011;13600;50.816;4.416;2023-06-14T06:27:31;12.38;;;8.40;;
25752;SDS011;13600;50.816;4.416;2023-06-14T06:29:57;15.43;;;8.63;;
25752;SDS011;13600;50.816;4.416;2023-06-14T06:32:23;12.10;;;8.48;;
25752;SDS011;13600;50.816;4.416;2023-06-14T06:34:48;14.70;;;8.73;;
25752;SDS011;13600;50.816;4.416;2023-06-14T06:37:15;14.32;;;8.48;;
25752;SDS011;13600;50.816;4.416;2023-06-14T06:39:40;20.02;;;8.32;;
25752;SDS011;13600;50.816;4.416;2023-06-14T06:42:06;21.20;;;8.02;;
25752;SDS011;13600;50.816;4.416;2023-06-14T06:44:32;13.23;;;8.23;;
25752;SDS011;13600;50.816;4.416;2023-06-14T06:46:59;14.95;;;8.32;;
25752;SDS011;13600;50.816;4.416;2023-06-14T06:49:25;18.75;;;8.23;;
25752;SDS011;13600;50.816;4.416;2023-06-14T06:52:03;13.60;;;8.38;;
25752;SDS011;13600;50.816;4.416;2023-06-14T06:54:30;15.05;;;8.05;;
25752;SDS011;13600;50.816;4.416;2023-06-14T06:56:58;15.15;;;7.80;;
25752;SDS011;13600;50.816;4.416;2023-06-14T06:59:24;16.65;;;8.18;;
25752;SDS011;13600;50.816;4.416;2023-06-14T07:01:51;18.63;;;8.23;;
25752;SDS011;13600;50.816;4.416;2023-06-14T07:04:16;14.25;;;7.82;;
25752;SDS011;13600;50.816;4.416;2023-06-14T07:06:42;24.08;;;7.78;;
25752;SDS011;13600;50.816;4.416;2023-06-14T07:09:08;22.35;;;7.78;;
25752;SDS011;13600;50.816;4.416;2023-06-14T07:11:38;17.92;;;7.70;;
25752;SDS011;13600;50.816;4.416;2023-06-14T07:14:05;10.27;;;7.30;;
25752;SDS011;13600;50.816;4.416;2023-06-14T07:16:31;14.93;;;7.85;;
25752;SDS011;13600;50.816;4.416;2023-06-14T07:18:57;17.75;;;7.10;;
25752;SDS011;13600;50.816;4.416;2023-06-14T07:21:23;17.30;;;7.20;;
25752;SDS011;13600;50.816;4.416;2023-06-14T07:23:51;9.57;;;7.00;;
25752;SDS011;13600;50.816;4.416;2023-06-14T07:26:19;11.88;;;7.28;;
25752;SDS011;13600;50.816;4.416;2023-06-14T07:28:46;12.90;;;6.65;;
25752;SDS011;13600;50.816;4.416;2023-06-14T07:31:12;13.85;;;6.28;;
25752;SDS011;13600;50.816;4.416;2023-06-14T07:33:39;16.10;;;6.95;;
25752;SDS011;13600;50.816;4.416;2023-06-14T07:36:06;11.15;;;6.75;;
25752;SDS011;13600;50.816;4.416;2023-06-14T07:41:01;14.50;;;6.78;;
25752;SDS011;13600;50.816;4.416;2023-06-14T07:43:28;10.40;;;5.85;;
25752;SDS011;13600;50.816;4.416;2023-06-14T07:45:53;9.48;;;5.60;;
25752;SDS011;13600;50.816;4.416;2023-06-14T07:48:20;10.70;;;6.15;;
25752;SDS011;13600;50.816;4.416;2023-06-14T07:50:45;8.88;;;5.40;;
25752;SDS011;13600;50.816;4.416;2023-06-14T07:53:11;7.53;;;5.55;;
25752;SDS011;13600;50.816;4.416;2023-06-14T07:55:37;7.85;;;5.20;;
25752;SDS011;13600;50.816;4.416;2023-06-14T07:58:03;9.02;;;5.70;;
25752;SDS011;13600;50.816;4.416;2023-06-14T08:00:30;10.23;;;5.80;;
25752;SDS011;13600;50.816;4.416;2023-06-14T08:02:56;11.75;;;5.57;;
25752;SDS011;13600;50.816;4.416;2023-06-14T08:05:23;10.27;;;5.30;;
25752;SDS011;13600;50.816;4.416;2023-06-14T08:07:52;8.73;;;5.05;;
25752;SDS011;13600;50.816;4.416;2023-06-14T08:10:19;7.80;;;5.55;;
25752;SDS011;13600;50.816;4.416;2023-06-14T08:12:45;8.15;;;5.25;;
25752;SDS011;13600;50.816;4.416;2023-06-14T08:15:10;11.07;;;4.95;;
25752;SDS011;13600;50.816;4.416;2023-06-14T08:17:36;7.00;;;5.00;;
25752;SDS011;13600;50.816;4.416;2023-06-14T08:20:02;7.15;;;5.05;;
25752;SDS011;13600;50.816;4.416;2023-06-14T08:22:31;9.63;;;5.45;;
25752;SDS011;13600;50.816;4.416;2023-06-14T08:24:59;13.52;;;5.43;;
25752;SDS011;13600;50.816;4.416;2023-06-14T08:27:26;11.57;;;4.82;;
25752;SDS011;13600;50.816;4.416;2023-06-14T08:29:52;13.45;;;5.45;;
25752;SDS011;13600;50.816;4.416;2023-06-14T08:32:17;15.70;;;5.30;;
25752;SDS011;13600;50.816;4.416;2023-06-14T08:34:43;12.63;;;5.45;;
25752;SDS011;13600;50.816;4.416;2023-06-14T08:37:09;8.70;;;5.13;;
25752;SDS011;13600;50.816;4.416;2023-06-14T08:39:34;11.82;;;5.60;;
25752;SDS011;13600;50.816;4.416;2023-06-14T08:42:01;9.27;;;4.85;;
25752;SDS011;13600;50.816;4.416;2023-06-14T08:44:28;6.25;;;4.85;;
25752;SDS011;13600;50.816;4.416;2023-06-14T08:46:58;9.63;;;5.22;;
25752;SDS011;13600;50.816;4.416;2023-06-14T08:49:25;10.18;;;4.40;;
25752;SDS011;13600;50.816;4.416;2023-06-14T08:51:57;11.85;;;4.93;;
25752;SDS011;13600;50.816;4.416;2023-06-14T08:54:23;11.68;;;5.13;;
25752;SDS011;13600;50.816;4.416;2023-06-14T08:56:52;12.85;;;5.53;;
25752;SDS011;13600;50.816;4.416;2023-06-14T08:59:23;7.97;;;4.57;;
25752;SDS011;13600;50.816;4.416;2023-06-14T09:01:52;12.68;;;5.20;;
25752;SDS011;13600;50.816;4.416;2023-06-14T09:04:19;11.93;;;5.38;;
25752;SDS011;13600;50.816;4.416;2023-06-14T09:06:50;12.13;;;5.47;;
25752;SDS011;13600;50.816;4.416;2023-06-14T09:09:20;8.50;;;5.30;;
25752;SDS011;13600;50.816;4.416;2023-06-14T09:11:46;15.77;;;9.82;;
25752;SDS011;13600;50.816;4.416;2023-06-14T09:14:11;14.05;;;5.65;;
25752;SDS011;13600;50.816;4.416;2023-06-14T09:16:37;11.75;;;5.20;;
25752;SDS011;13600;50.816;4.416;2023-06-14T09:19:02;11.80;;;5.32;;
25752;SDS011;13600;50.816;4.416;2023-06-14T09:21:28;8.73;;;4.85;;
25752;SDS011;13600;50.816;4.416;2023-06-14T09:23:59;8.68;;;4.95;;
25752;SDS011;13600;50.816;4.416;2023-06-14T09:26:25;11.95;;;5.03;;
25752;SDS011;13600;50.816;4.416;2023-06-14T09:28:52;10.45;;;4.93;;
25752;SDS011;13600;50.816;4.416;2023-06-14T09:31:19;14.77;;;5.50;;
25752;SDS011;13600;50.816;4.416;2023-06-14T09:33:47;12.48;;;4.65;;
25752;SDS011;13600;50.816;4.416;2023-06-14T09:36:17;9.35;;;4.97;;
25752;SDS011;13600;50.816;4.416;2023-06-14T09:38:55;10.45;;;5.40;;
25752;SDS011;13600;50.816;4.416;2023-06-14T09:44:01;7.78;;;4.88;;
25752;SDS011;13600;50.816;4.416;2023-06-14T09:46:28;9.32;;;4.60;;
25752;SDS011;13600;50.816;4.416;2023-06-14T09:48:55;12.05;;;4.80;;
25752;SDS011;13600;50.816;4.416;2023-06-14T09:51:22;6.20;;;4.60;;
25752;SDS011;13600;50.816;4.416;2023-06-14T09:53:49;12.60;;;5.80;;
25752;SDS011;13600;50.816;4.416;2023-06-14T09:56:20;8.27;;;5.15;;
25752;SDS011;13600;50.816;4.416;2023-06-14T09:58:52;9.25;;;5.05;;
25752;SDS011;13600;50.816;4.416;2023-06-14T10:01:20;12.38;;;5.50;;
25752;SDS011;13600;50.816;4.416;2023-06-14T10:03:49;10.40;;;5.43;;
25752;SDS011;13600;50.816;4.416;2023-06-14T10:06:18;9.02;;;5.03;;
25752;SDS011;13600;50.816;4.416;2023-06-14T10:08:46;10.50;;;5.20;;
25752;SDS011;13600;50.816;4.416;2023-06-14T10:11:13;12.40;;;5.80;;
25752;SDS011;13600;50.816;4.416;2023-06-14T10:13:39;12.43;;;5.60;;
25752;SDS011;13600;50.816;4.416;2023-06-14T10:16:08;10.57;;;5.07;;
25752;SDS011;13600;50.816;4.416;2023-06-14T10:24:07;9.73;;;4.20;;
25752;SDS011;13600;50.816;4.416;2023-06-14T10:26:39;13.18;;;3.88;;
25752;SDS011;13600;50.816;4.416;2023-06-14T10:29:16;8.40;;;4.25;;
25752;SDS011;13600;50.816;4.416;2023-06-14T10:31:42;7.55;;;4.00;;
25752;SDS011;13600;50.816;4.416;2023-06-14T10:34:11;10.75;;;3.95;;
25752;SDS011;13600;50.816;4.416;2023-06-14T10:36:38;6.10;;;3.50;;
25752;SDS011;13600;50.816;4.416;2023-06-14T10:39:07;9.07;;;3.78;;
25752;SDS011;13600;50.816;4.416;2023-06-14T10:41:36;6.57;;;3.33;;
25752;SDS011;13600;50.816;4.416;2023-06-14T10:46:38;8.82;;;3.60;;
25752;SDS011;13600;50.816;4.416;2023-06-14T10:49:04;8.38;;;3.55;;
25752;SDS011;13600;50.816;4.416;2023-06-14T10:51:37;12.32;;;3.72;;
25752;SDS011;13600;50.816;4.416;2023-06-14T10:54:11;10.35;;;3.65;;
25752;SDS011;13600;50.816;4.416;2023-06-14T10:56:38;7.55;;;3.22;;
25752;SDS011;13600;50.816;4.416;2023-06-14T10:59:11;7.10;;;3.58;;
25752;SDS011;13600;50.816;4.416;2023-06-14T11:01:37;15.77;;;3.65;;
25752;SDS011;13600;50.816;4.416;2023-06-14T11:04:11;8.85;;;3.25;;
25752;SDS011;13600;50.816;4.416;2023-06-14T11:07:02;9.10;;;3.80;;
25752;SDS011;13600;50.816;4.416;2023-06-14T11:09:57;6.13;;;3.40;;
25752;SDS011;13600;50.816;4.416;2023-06-14T11:12:41;11.10;;;3.88;;
25752;SDS011;13600;50.816;4.416;2023-06-14T11:15:12;6.35;;;3.50;;
25752;SDS011;13600;50.816;4.416;2023-06-14T11:17:37;7.25;;;3.38;;
25752;SDS011;13600;50.816;4.416;2023-06-14T11:20:12;7.88;;;3.88;;
25752;SDS011;13600;50.816;4.416;2023-06-14T11:22:42;4.57;;;3.35;;
25752;SDS011;13600;50.816;4.416;2023-06-14T11:25:08;8.27;;;3.08;;
25752;SDS011;13600;50.816;4.416;2023-06-14T11:27:35;6.68;;;3.15;;
25752;SDS011;13600;50.816;4.416;2023-06-14T11:30:01;3.97;;;2.72;;
25752;SDS011;13600;50.816;4.416;2023-06-14T11:32:27;5.88;;;3.25;;
25752;SDS011;13600;50.816;4.416;2023-06-14T11:34:53;6.68;;;2.97;;
25752;SDS011;13600;50.816;4.416;2023-06-14T11:37:19;13.35;;;3.30;;
25752;SDS011;13600;50.816;4.416;2023-06-14T11:39:45;7.93;;;3.28;;
25752;SDS011;13600;50.816;4.416;2023-06-14T11:42:16;7.68;;;3.30;;
25752;SDS011;13600;50.816;4.416;2023-06-14T11:44:45;11.48;;;3.80;;
25752;SDS011;13600;50.816;4.416;2023-06-14T11:47:11;8.13;;;3.65;;
25752;SDS011;13600;50.816;4.416;2023-06-14T11:49:37;7.95;;;3.10;;
25752;SDS011;13600;50.816;4.416;2023-06-14T11:52:03;7.75;;;3.08;;
25752;SDS011;13600;50.816;4.416;2023-06-14T11:54:31;9.85;;;3.58;;
25752;SDS011;13600;50.816;4.416;2023-06-14T11:56:57;11.32;;;3.33;;
25752;SDS011;13600;50.816;4.416;2023-06-14T11:59:23;8.65;;;3.08;;
25752;SDS011;13600;50.816;4.416;2023-06-14T12:01:49;9.70;;;3.47;;
25752;SDS011;13600;50.816;4.416;2023-06-14T12:04:23;8.00;;;3.50;;
25752;SDS011;13600;50.816;4.416;2023-06-14T12:06:51;8.05;;;3.28;;
25752;SDS011;13600;50.816;4.416;2023-06-14T12:09:18;11.35;;;3.28;;
25752;SDS011;13600;50.816;4.416;2023-06-14T12:11:44;6.32;;;3.28;;
25752;SDS011;13600;50.816;4.416;2023-06-14T12:14:10;6.07;;;3.20;;
25752;SDS011;13600;50.816;4.416;2023-06-14T12:16:39;5.32;;;3.20;;
25752;SDS011;13600;50.816;4.416;2023-06-14T12:19:11;5.50;;;3.20;;
25752;SDS011;13600;50.816;4.416;2023-06-14T12:21:40;7.45;;;3.30;;
25752;SDS011;13600;50.816;4.416;2023-06-14T12:24:07;9.98;;;3.60;;
25752;SDS011;13600;50.816;4.416;2023-06-14T12:26:33;6.07;;;3.28;;
25752;SDS011;13600;50.816;4.416;2023-06-14T12:29:04;10.20;;;3.13;;
25752;SDS011;13600;50.816;4.416;2023-06-14T12:31:31;5.00;;;3.10;;
25752;SDS011;13600;50.816;4.416;2023-06-14T12:33:56;7.63;;;3.00;;
25752;SDS011;13600;50.816;4.416;2023-06-14T12:36:22;8.15;;;3.10;;
25752;SDS011;13600;50.816;4.416;2023-06-14T12:38:47;8.77;;;2.90;;
25752;SDS011;13600;50.816;4.416;2023-06-14T12:41:14;8.43;;;3.05;;
25752;SDS011;13600;50.816;4.416;2023-06-14T12:43:40;10.68;;;3.28;;
25752;SDS011;13600;50.816;4.416;2023-06-14T12:46:07;11.95;;;3.30;;
25752;SDS011;13600;50.816;4.416;2023-06-14T12:48:32;7.80;;;3.25;;
25752;SDS011;13600;50.816;4.416;2023-06-14T12:50:59;8.95;;;3.22;;
25752;SDS011;13600;50.816;4.416;2023-06-14T12:53:25;7.40;;;3.13;;
25752;SDS011;13600;50.816;4.416;2023-06-14T12:55:50;4.85;;;2.90;;
25752;SDS011;13600;50.816;4.416;2023-06-14T12:58:16;7.20;;;2.92;;
25752;SDS011;13600;50.816;4.416;2023-06-14T13:00:44;11.25;;;3.30;;
25752;SDS011;13600;50.816;4.416;2023-06-14T13:03:10;6.63;;;3.13;;
25752;SDS011;13600;50.816;4.416;2023-06-14T13:05:36;9.30;;;2.90;;
25752;SDS011;13600;50.816;4.416;2023-06-14T13:08:05;8.38;;;3.00;;
25752;SDS011;13600;50.816;4.416;2023-06-14T13:10:33;7.50;;;2.60;;
25752;SDS011;13600;50.816;4.416;2023-06-14T13:12:58;7.55;;;2.70;;
25752;SDS011;13600;50.816;4.416;2023-06-14T13:15:25;7.82;;;2.72;;
25752;SDS011;13600;50.816;4.416;2023-06-14T13:17:51;7.07;;;2.67;;
25752;SDS011;13600;50.816;4.416;2023-06-14T13:20:17;6.95;;;2.78;;
25752;SDS011;13600;50.816;4.416;2023-06-14T13:22:42;10.00;;;2.95;;
25752;SDS011;13600;50.816;4.416;2023-06-14T13:25:09;9.15;;;3.00;;
25752;SDS011;13600;50.816;4.416;2023-06-14T13:27:35;3.53;;;2.20;;
25752;SDS011;13600;50.816;4.416;2023-06-14T13:30:01;5.90;;;2.63;;
25752;SDS011;13600;50.816;4.416;2023-06-14T13:32:27;9.68;;;2.35;;
25752;SDS011;13600;50.816;4.416;2023-06-14T13:34:53;8.18;;;2.60;;
25752;SDS011;13600;50.816;4.416;2023-06-14T13:37:18;7.10;;;2.40;;
25752;SDS011;13600;50.816;4.416;2023-06-14T13:39:44;5.28;;;2.67;;
25752;SDS011;13600;50.816;4.416;2023-06-14T13:42:10;4.95;;;2.53;;
25752;SDS011;13600;50.816;4.416;2023-06-14T13:44:36;4.00;;;2.55;;
25752;SDS011;13600;50.816;4.416;2023-06-14T13:47:02;6.55;;;2.60;;
25752;SDS011;13600;50.816;4.416;2023-06-14T13:49:29;7.45;;;2.47;;
25752;SDS011;13600;50.816;4.416;2023-06-14T13:51:54;5.80;;;2.55;;
25752;SDS011;13600;50.816;4.416;2023-06-14T13:54:20;4.88;;;2.35;;
25752;SDS011;13600;50.816;4.416;2023-06-14T13:56:46;4.10;;;2.50;;
25752;SDS011;13600;50.816;4.416;2023-06-14T13:59:12;9.32;;;2.17;;
25752;SDS011;13600;50.816;4.416;2023-06-14T14:01:38;5.07;;;2.30;;
25752;SDS011;13600;50.816;4.416;2023-06-14T14:04:03;6.47;;;2.20;;
25752;SDS011;13600;50.816;4.416;2023-06-14T14:06:30;4.10;;;1.90;;
25752;SDS011;13600;50.816;4.416;2023-06-14T14:08:56;9.48;;;2.33;;
25752;SDS011;13600;50.816;4.416;2023-06-14T14:11:22;5.93;;;2.05;;
25752;SDS011;13600;50.816;4.416;2023-06-14T14:13:47;4.85;;;2.05;;
25752;SDS011;13600;50.816;4.416;2023-06-14T14:16:13;4.28;;;2.00;;
25752;SDS011;13600;50.816;4.416;2023-06-14T14:18:39;5.53;;;2.10;;
25752;SDS011;13600;50.816;4.416;2023-06-14T14:21:05;3.63;;;2.10;;
25752;SDS011;13600;50.816;4.416;2023-06-14T14:23:31;6.07;;;1.75;;
25752;SDS011;13600;50.816;4.416;2023-06-14T14:25:56;3.30;;;1.90;;
25752;SDS011;13600;50.816;4.416;2023-06-14T14:28:22;5.72;;;1.80;;
25752;SDS011;13600;50.816;4.416;2023-06-14T14:30:48;4.60;;;1.90;;
25752;SDS011;13600;50.816;4.416;2023-06-14T14:33:14;4.82;;;1.77;;
25752;SDS011;13600;50.816;4.416;2023-06-14T14:35:43;6.13;;;1.88;;
25752;SDS011;13600;50.816;4.416;2023-06-14T14:38:12;3.83;;;1.38;;
25752;SDS011;13600;50.816;4.416;2023-06-14T14:40:42;5.07;;;1.60;;
25752;SDS011;13600;50.816;4.416;2023-06-14T14:43:09;6.53;;;1.42;;
25752;SDS011;13600;50.816;4.416;2023-06-14T14:45:36;5.10;;;1.38;;
25752;SDS011;13600;50.816;4.416;2023-06-14T14:48:02;2.97;;;1.33;;
25752;SDS011;13600;50.816;4.416;2023-06-14T14:50:28;2.47;;;1.40;;
25752;SDS011;13600;50.816;4.416;2023-06-14T14:52:54;6.25;;;1.20;;
25752;SDS011;13600;50.816;4.416;2023-06-14T14:55:20;3.33;;;1.52;;